Altamont, Pennsylvania
Current Conditions -  °F | °C
As of 3:55 PM on Thursday 23 Oct 2014 (Local Time) from KHZL Reporting Station
Drizzle Drizzle  
Wind Chill: 39°   Ceiling: 600
Heat Index: 45°   Visibility: 2.5mi
Dew Point: 45°   Wind: 12mph
Humidity: 100%   Direction: 310°NW
Pressure: 29.86"   Gusts: 17mph
Location:  40.7811°N, 76.2523°W
Report Text: KHZL 231955Z AUTO 31010G15KT 2 1/2SM -DZ BKN006 OVC010 07/07 A2986 RMK AO2
Loading
Personal Weather Stations






























Interactive Weather Map New forecast layout! Learn more

10-Day Weather Forecast

Advertisements
Track Severe Weather on mobile